Scott, AR

10:05 AM CST on December 22, 2014 (GMT -0600)
Central Business Equipment | Change Station
CLOSE
Current Station
Personal Weather Station
Location: Sherwood, AR
Elevation: 288 ft
Nearby Weather Stations

Elev 288 ft 34.82 °N, 92.20 °W | Updated 3 seconds ago

Overcast
Overcast
50.9 °F
Feels Like 50.9 °F
N
1.1
Wind Variable Wind from WSW
Gusts 2.5 mph

Today
High -- | Low -- °F
--% Chance of Precip.
Yesterday
High -- | Low -- °F
Precip. -- in
7:12 AM 5:01 PM
New Moon, 0% visible
Pressure 29.73 in
Visibility 2.5 miles
Clouds Overcast 500 ft
Dew Point 50 °F
Humidity 97%
Rainfall 0.00 in
Snow Depth Not available.
UV 1 out of 12
Pollen 6.60 out of 12
Air Quality Not available.
Flu Activity Not available.
METAR KLIT 221553Z 16009KT 2 1/2SM BR OVC005 11/09 A2973 RMK AO2 SLP068 T01060089

More Conditions Fewer Conditions

Pressure 29.73 in
Visibility 2.5 miles
Clouds Overcast 500 ft
Dew Point 50 °F
Humidity 97%
Rainfall 0.00 in
Snow Depth Not available.
UV 1 out of 12
Pollen 6.60 out of 12
Air Quality Not available.
Flu Activity Not available.
METAR KLIT 221553Z 16009KT 2 1/2SM BR OVC005 11/09 A2973 RMK AO2 SLP068 T01060089

More Conditions Fewer Conditions

10-Day Weather Forecast

Almanac

Astronomy

Dec. 22, 2014 Rise Set
Actual Time
Civil Twilight
Nautical Twilight
Astronomical Twilight
Moon
Length of Visible Light
Length of Day
Tomorrow will be .
, % of the Moon is Illuminated

Today's Extremes

State Highs State Lows

Community

WunderPhotos

Upload Photos

1,779,630 photos uploaded!

WunderBlogs® & News

Nearby

Air Quality

  Air Quality AQ Index Pollutant
Not available.

Snow Depth

Station Depth Elevation

Earthquake Activity

City Distance Mag. Time & Date
Minimum magnitude displayed is 2.5.

Coastal Water Temperatures

Place Temperature

Nearby Weather Stations